createdAt,value
2017-12-24T00:00:13.662Z,92.3
2017-12-24T00:01:17.346Z,92.3
2017-12-24T00:02:21.049Z,92.2
2017-12-24T00:03:24.618Z,92.1
2017-12-24T00:04:29.685Z,92
2017-12-24T00:05:33.728Z,92
2017-12-24T00:06:38.322Z,92.1
2017-12-24T00:07:46.159Z,92.2
2017-12-24T00:08:51.347Z,92
2017-12-24T00:09:55.079Z,92
2017-12-24T00:10:59.973Z,92
2017-12-24T00:12:04.793Z,91.8
2017-12-24T00:13:08.266Z,91.7
2017-12-24T00:14:11.893Z,91.7
2017-12-24T00:15:16.021Z,91.8
2017-12-24T00:16:19.483Z,92
2017-12-24T00:17:23.916Z,91.7
2017-12-24T00:18:31.178Z,91.9
2017-12-24T00:19:34.918Z,92
2017-12-24T00:20:38.488Z,91.8
2017-12-24T00:21:42.053Z,91.8
2017-12-24T00:22:46.280Z,91.8
2017-12-24T00:23:50.434Z,91.7
2017-12-24T00:24:54.783Z,91.9
2017-12-24T00:25:58.204Z,91.7
2017-12-24T00:27:01.756Z,91.7
2017-12-24T00:28:05.183Z,91.5
2017-12-24T00:29:12.707Z,91.6
2017-12-24T00:30:16.329Z,91.8
2017-12-24T00:31:19.711Z,91.9
2017-12-24T00:32:23.183Z,91.8
2017-12-24T00:33:26.520Z,91.8
2017-12-24T00:34:29.924Z,91.8
2017-12-24T00:35:33.398Z,91.6
2017-12-24T00:36:37.847Z,91.6
2017-12-24T00:37:41.412Z,91.7
2017-12-24T00:38:44.981Z,91.7
2017-12-24T00:39:52.304Z,91.7
2017-12-24T00:40:55.971Z,91.7
2017-12-24T00:41:59.517Z,91.6
2017-12-24T00:43:03.776Z,91.5
2017-12-24T00:44:07.401Z,91.5
2017-12-24T00:45:10.925Z,91.6
2017-12-24T00:46:14.449Z,91.5
2017-12-24T00:47:17.883Z,91.6
2017-12-24T00:48:21.988Z,91.6
2017-12-24T00:49:25.603Z,91.6
2017-12-24T00:50:32.780Z,91.6
2017-12-24T00:51:36.950Z,91.5
2017-12-24T00:52:40.820Z,91.5
2017-12-24T00:53:45.324Z,91.6
2017-12-24T00:54:48.723Z,91.8
2017-12-24T00:55:52.074Z,91.9
2017-12-24T00:56:55.472Z,91.8
2017-12-24T00:57:59.749Z,91.8
2017-12-24T00:59:03.161Z,91.8
2017-12-24T01:00:06.602Z,91.9
2017-12-24T01:01:13.729Z,91.9
2017-12-24T01:02:17.878Z,92
2017-12-24T01:03:21.487Z,92.1
2017-12-24T01:04:24.904Z,92.1
2017-12-24T01:05:28.391Z,92.1
2017-12-24T01:06:31.812Z,92.2
2017-12-24T01:07:35.315Z,92.1
2017-12-24T01:08:39.611Z,92.1
2017-12-24T01:09:43.032Z,92.1
2017-12-24T01:10:46.636Z,92
2017-12-24T01:11:54.444Z,92.1
2017-12-24T01:12:58.594Z,92
2017-12-24T01:14:02.340Z,91.9
2017-12-24T01:15:06.432Z,91.9
2017-12-24T01:16:10.520Z,91.9
2017-12-24T01:17:13.955Z,91.9
2017-12-24T01:18:18.076Z,91.7
2017-12-24T01:19:21.472Z,91.7
2017-12-24T01:20:24.990Z,91.7
2017-12-24T01:21:29.220Z,91.6
2017-12-24T01:22:36.329Z,91.6
2017-12-24T01:23:39.745Z,91.7
2017-12-24T01:24:43.186Z,91.7
2017-12-24T01:25:47.821Z,91.7
2017-12-24T01:26:52.016Z,91.7
2017-12-24T01:27:56.162Z,91.7
2017-12-24T01:28:59.601Z,91.6
2017-12-24T01:30:03.867Z,91.6
2017-12-24T01:31:07.354Z,91.6
2017-12-24T01:32:11.433Z,91.6
2017-12-24T01:33:18.676Z,91.7
2017-12-24T01:34:22.264Z,91.7
2017-12-24T01:35:26.201Z,91.7
2017-12-24T01:36:31.322Z,91.6
2017-12-24T01:37:35.920Z,91.4
2017-12-24T01:38:40.149Z,91.5
2017-12-24T01:39:44.276Z,91.6
2017-12-24T01:40:48.742Z,91.5
2017-12-24T01:41:54.238Z,91.3
2017-12-24T01:43:00.257Z,91.4
2017-12-24T01:44:07.890Z,91.4
2017-12-24T01:45:12.145Z,91.4
2017-12-24T01:46:15.539Z,91.4
2017-12-24T01:47:19.937Z,91.3
2017-12-24T01:48:23.391Z,91.2
2017-12-24T01:49:26.921Z,91.4
2017-12-24T01:50:31.022Z,91.3
2017-12-24T01:51:35.238Z,91.4
2017-12-24T01:52:39.230Z,91.4
2017-12-24T01:53:42.685Z,91.5
2017-12-24T01:54:49.802Z,91.5
2017-12-24T01:55:53.288Z,91.6
2017-12-24T01:56:56.738Z,91.7
2017-12-24T01:58:00.115Z,91.8
2017-12-24T01:59:04.244Z,91.8
2017-12-24T02:00:07.697Z,91.6
2017-12-24T02:01:11.026Z,91.4
2017-12-24T02:02:14.736Z,91.5
2017-12-24T02:03:18.371Z,91.5
2017-12-24T02:04:21.899Z,91.5
2017-12-24T02:05:29.556Z,91.4
2017-12-24T02:06:33.135Z,91.5
2017-12-24T02:07:36.907Z,91.5
2017-12-24T02:08:40.358Z,91.5
2017-12-24T02:09:43.900Z,91.6
2017-12-24T02:10:47.212Z,91.6
2017-12-24T02:11:50.671Z,91.6
2017-12-24T02:12:54.436Z,91.4
2017-12-24T02:13:58.507Z,91.4
2017-12-24T02:15:02.055Z,91.5
2017-12-24T02:16:08.802Z,91.5
2017-12-24T02:17:12.456Z,91.5
2017-12-24T02:18:17.146Z,91.5
2017-12-24T02:19:20.792Z,91.6
2017-12-24T02:20:24.171Z,91.5
2017-12-24T02:21:27.707Z,91.5
2017-12-24T02:22:31.277Z,91.4
2017-12-24T02:23:34.715Z,91.4
2017-12-24T02:24:38.066Z,91.4
2017-12-24T02:25:41.639Z,91.5
2017-12-24T02:26:48.611Z,91.5
2017-12-24T02:27:52.037Z,91.6
2017-12-24T02:28:56.600Z,91.6
2017-12-24T02:30:00.083Z,91.7
2017-12-24T02:31:04.392Z,91.8
2017-12-24T02:32:07.809Z,91.8
2017-12-24T02:33:12.783Z,91.8
2017-12-24T02:34:16.627Z,91.8
2017-12-24T02:35:20.109Z,91.7
2017-12-24T02:36:23.467Z,91.8
2017-12-24T02:37:30.663Z,91.7
2017-12-24T02:38:34.193Z,91.7
2017-12-24T02:39:38.554Z,91.7
2017-12-24T02:40:42.124Z,91.7
2017-12-24T02:41:45.627Z,91.7
2017-12-24T02:42:49.151Z,91.6
2017-12-24T02:43:52.572Z,91.6
2017-12-24T02:44:56.824Z,91.6
2017-12-24T02:46:01.016Z,91.5
2017-12-24T02:47:04.510Z,91.4
2017-12-24T02:48:11.397Z,91.2
2017-12-24T02:49:14.864Z,91.2
2017-12-24T02:50:19.350Z,91.1
2017-12-24T02:51:22.798Z,91.1
2017-12-24T02:52:28.960Z,91.1
2017-12-24T02:53:32.521Z,91
2017-12-24T02:54:36.607Z,91
2017-12-24T02:55:40.746Z,91.2
2017-12-24T02:56:44.756Z,91.2
2017-12-24T02:57:48.963Z,91.1
2017-12-24T02:58:56.429Z,91.2
2017-12-24T02:59:59.946Z,91.4
2017-12-24T03:01:04.318Z,91.4
2017-12-24T03:02:08.548Z,91.2
2017-12-24T03:03:12.061Z,91.2
2017-12-24T03:04:15.959Z,90.9
2017-12-24T03:05:19.318Z,90.9
2017-12-24T03:06:23.036Z,90.9
2017-12-24T03:07:27.294Z,90.9
2017-12-24T03:08:30.948Z,91
2017-12-24T03:09:40.832Z,91.1
2017-12-24T03:10:44.926Z,91.2
2017-12-24T03:11:49.752Z,91.2
2017-12-24T03:12:53.672Z,91.3
2017-12-24T03:13:57.081Z,91.3
2017-12-24T03:15:00.827Z,91
2017-12-24T03:16:04.455Z,91
2017-12-24T03:17:08.692Z,91.2
2017-12-24T03:18:12.716Z,91.2
2017-12-24T03:19:16.617Z,91.2
2017-12-24T03:20:23.711Z,91.2
2017-12-24T03:21:27.684Z,91.2
2017-12-24T03:22:31.191Z,91
2017-12-24T03:23:34.703Z,90.8
2017-12-24T03:24:38.125Z,90.9
2017-12-24T03:25:41.732Z,91.3
2017-12-24T03:26:46.042Z,90.9
2017-12-24T03:27:49.730Z,91
2017-12-24T03:28:53.187Z,91.1
2017-12-24T03:29:57.350Z,91.1
2017-12-24T03:31:03.541Z,91.1
2017-12-24T03:32:07.595Z,91
2017-12-24T03:33:12.032Z,91.1
2017-12-24T03:34:15.411Z,91.2
2017-12-24T03:35:18.830Z,91.4
2017-12-24T03:36:22.298Z,91.4
2017-12-24T03:37:25.819Z,91.3
2017-12-24T03:38:29.428Z,91.3
2017-12-24T03:39:32.970Z,91.2
2017-12-24T03:40:36.441Z,91
2017-12-24T03:41:43.467Z,91.1
2017-12-24T03:42:47.026Z,91.1
2017-12-24T03:43:50.379Z,91.1
2017-12-24T03:44:53.981Z,91.1
2017-12-24T03:45:57.552Z,91
2017-12-24T03:47:00.966Z,91
2017-12-24T03:48:04.381Z,91.1
2017-12-24T03:49:08.204Z,91.1
2017-12-24T03:50:11.808Z,91
2017-12-24T03:51:15.275Z,91.1
2017-12-24T03:52:22.426Z,91.1
2017-12-24T03:53:25.987Z,91.1
2017-12-24T03:54:30.081Z,91.1
2017-12-24T03:55:34.188Z,91
2017-12-24T03:56:37.619Z,91
2017-12-24T03:57:41.052Z,90.9
2017-12-24T03:58:44.588Z,90.9
2017-12-24T03:59:48.594Z,90.9
2017-12-24T04:00:52.034Z,91.1
2017-12-24T04:01:55.648Z,91.1
2017-12-24T04:03:03.513Z,91.1
2017-12-24T04:04:07.127Z,91.2
2017-12-24T04:05:10.898Z,91.2
2017-12-24T04:06:14.304Z,91.1
2017-12-24T04:07:18.799Z,91.2
2017-12-24T04:08:22.306Z,91.2
2017-12-24T04:09:25.904Z,91.2
2017-12-24T04:10:29.243Z,91.2
2017-12-24T04:11:32.678Z,91.3
2017-12-24T04:12:36.869Z,91.3
2017-12-24T04:13:43.869Z,91.3
2017-12-24T04:14:47.176Z,91.3
2017-12-24T04:15:51.025Z,91.3
2017-12-24T04:16:54.519Z,91.3
2017-12-24T04:17:57.934Z,91.2
2017-12-24T04:19:01.452Z,91.1
2017-12-24T04:20:04.862Z,91.1
2017-12-24T04:21:08.347Z,91.1
2017-12-24T04:22:11.715Z,90.9
2017-12-24T04:23:15.249Z,90.9
2017-12-24T04:24:22.458Z,90.9
2017-12-24T04:25:25.885Z,90.9
2017-12-24T04:26:30.308Z,90.7
2017-12-24T04:27:33.957Z,90.6
2017-12-24T04:28:37.334Z,90.6
2017-12-24T04:29:41.722Z,90.6
2017-12-24T04:30:45.855Z,90.7
2017-12-24T04:31:49.752Z,90.7
2017-12-24T04:32:53.288Z,90.7
2017-12-24T04:33:56.796Z,90.8
2017-12-24T04:35:03.855Z,90.8
2017-12-24T04:36:07.442Z,90.8
2017-12-24T04:37:11.289Z,90.8
2017-12-24T04:38:14.739Z,90.9
2017-12-24T04:39:18.205Z,90.9
2017-12-24T04:40:22.276Z,91
2017-12-24T04:41:25.723Z,91
2017-12-24T04:42:30.088Z,91
2017-12-24T04:43:33.601Z,90.9
2017-12-24T04:44:37.025Z,91
2017-12-24T04:45:45.110Z,90.9
2017-12-24T04:46:50.585Z,90.9
2017-12-24T04:47:55.214Z,90.7
2017-12-24T04:48:59.335Z,90.5
2017-12-24T04:50:03.325Z,90.4
2017-12-24T04:51:07.374Z,90.5
2017-12-24T04:52:10.884Z,90.5
2017-12-24T04:53:14.505Z,90.8
2017-12-24T04:54:17.977Z,90.8
2017-12-24T04:55:21.840Z,90.8
2017-12-24T04:56:29.169Z,90.7
2017-12-24T04:57:32.880Z,90.9
2017-12-24T04:58:37.831Z,90.9
2017-12-24T04:59:42.584Z,91
2017-12-24T05:00:46.218Z,91
2017-12-24T05:01:49.707Z,91
2017-12-24T05:02:53.095Z,91
2017-12-24T05:03:56.624Z,91.1
2017-12-24T05:05:00.220Z,91
2017-12-24T05:06:04.368Z,91
2017-12-24T05:07:12.068Z,91
2017-12-24T05:08:16.831Z,90.9
2017-12-24T05:09:20.302Z,90.8
2017-12-24T05:10:23.798Z,90.7
2017-12-24T05:11:27.272Z,90.7
2017-12-24T05:12:30.868Z,90.7
2017-12-24T05:13:34.192Z,90.8
2017-12-24T05:14:38.002Z,90.7
2017-12-24T05:15:41.974Z,90.7
2017-12-24T05:16:46.160Z,90.7
2017-12-24T05:17:53.292Z,90.8
2017-12-24T05:18:56.731Z,90.8
2017-12-24T05:20:00.978Z,90.7
2017-12-24T05:21:04.525Z,90.8
2017-12-24T05:22:08.091Z,90.8
2017-12-24T05:23:11.599Z,90.8
2017-12-24T05:24:15.142Z,90.6
2017-12-24T05:25:18.542Z,90.5
2017-12-24T05:26:21.973Z,90.5
2017-12-24T05:27:25.502Z,90.6
2017-12-24T05:28:32.480Z,90.4
2017-12-24T05:29:36.096Z,90.5
2017-12-24T05:30:39.962Z,90.7
2017-12-24T05:31:43.421Z,90.9
2017-12-24T05:32:47.030Z,90.9
2017-12-24T05:33:50.477Z,90.9
2017-12-24T05:34:53.959Z,90.8
2017-12-24T05:35:57.407Z,90.6
2017-12-24T05:37:01.037Z,90.5
2017-12-24T05:38:04.623Z,90.7
2017-12-24T05:39:11.564Z,90.6
2017-12-24T05:40:15.013Z,90.6
2017-12-24T05:41:18.828Z,90.7
2017-12-24T05:42:22.322Z,90.9
2017-12-24T05:43:25.761Z,90.9
2017-12-24T05:44:29.339Z,90.9
2017-12-24T05:45:32.633Z,90.9
2017-12-24T05:46:36.527Z,90.9
2017-12-24T05:47:40.917Z,90.9
2017-12-24T05:48:45.083Z,90.8
2017-12-24T05:49:51.512Z,90.7
2017-12-24T05:50:55.138Z,90.6
2017-12-24T05:51:58.576Z,90.7
2017-12-24T05:53:02.809Z,90.9
2017-12-24T05:54:06.456Z,90.9
2017-12-24T05:55:09.923Z,90.8
2017-12-24T05:56:14.531Z,90.6
2017-12-24T05:57:18.938Z,90.7
2017-12-24T05:58:22.359Z,90.8
2017-12-24T05:59:27.245Z,90.8
2017-12-24T06:00:34.951Z,90.6
2017-12-24T06:01:39.518Z,90.6
2017-12-24T06:02:43.024Z,90.8
2017-12-24T06:03:47.494Z,90.9
2017-12-24T06:04:50.951Z,90.8
2017-12-24T06:05:55.742Z,90.8
2017-12-24T06:06:59.922Z,90.8
2017-12-24T06:08:04.149Z,90.7
2017-12-24T06:09:07.533Z,90.6
2017-12-24T06:10:10.978Z,90.7
2017-12-24T06:11:19.510Z,90.6
2017-12-24T06:12:24.039Z,90.6
2017-12-24T06:13:27.892Z,90.5
2017-12-24T06:14:31.430Z,90.6
2017-12-24T06:15:36.284Z,90.6
2017-12-24T06:16:39.749Z,90.6
2017-12-24T06:17:43.200Z,90.7
2017-12-24T06:18:46.593Z,90.7
2017-12-24T06:19:49.898Z,90.6
2017-12-24T06:20:54.410Z,90.5
2017-12-24T06:22:02.763Z,90.7
2017-12-24T06:23:06.152Z,91
2017-12-24T06:24:09.639Z,91.1
2017-12-24T06:25:13.050Z,90.8
2017-12-24T06:26:17.179Z,90.7
2017-12-24T06:27:20.774Z,90.7
2017-12-24T06:28:25.032Z,90.7
2017-12-24T06:29:31.621Z,90.7
2017-12-24T06:30:35.672Z,90.8
2017-12-24T06:31:41.473Z,91
2017-12-24T06:32:49.934Z,91.1
2017-12-24T06:33:53.362Z,91.1
2017-12-24T06:34:57.713Z,91.2
2017-12-24T06:36:02.104Z,91.2
2017-12-24T06:37:06.182Z,91.3
2017-12-24T06:38:11.056Z,91.2
2017-12-24T06:39:15.428Z,91.2
2017-12-24T06:40:19.803Z,91.2
2017-12-24T06:41:23.348Z,91.2
2017-12-24T06:42:27.039Z,91.1
2017-12-24T06:43:34.892Z,91
2017-12-24T06:44:38.366Z,91
2017-12-24T06:45:42.186Z,91
2017-12-24T06:46:45.712Z,91
2017-12-24T06:47:49.138Z,91.1
2017-12-24T06:48:53.862Z,91.1
2017-12-24T06:49:57.301Z,91
2017-12-24T06:51:01.066Z,90.9
2017-12-24T06:52:04.579Z,90.8
2017-12-24T06:53:08.842Z,90.8
2017-12-24T06:54:16.644Z,90.9
2017-12-24T06:55:21.225Z,90.8
2017-12-24T06:56:24.559Z,90.7
2017-12-24T06:57:28.700Z,90.8
2017-12-24T06:58:32.181Z,90.8
2017-12-24T06:59:35.632Z,90.9
2017-12-24T07:00:39.180Z,90.9
2017-12-24T07:01:43.786Z,91
2017-12-24T07:02:47.932Z,91.1
2017-12-24T07:03:52.342Z,91.1
2017-12-24T07:04:59.513Z,91.1
2017-12-24T07:06:03.817Z,91.1
2017-12-24T07:07:07.888Z,91
2017-12-24T07:08:11.492Z,91
2017-12-24T07:09:15.032Z,90.9
2017-12-24T07:10:18.948Z,91
2017-12-24T07:11:23.015Z,90.9
2017-12-24T07:12:26.831Z,91.1
2017-12-24T07:13:30.300Z,91.1
2017-12-24T07:14:33.792Z,91
2017-12-24T07:15:41.626Z,91
2017-12-24T07:16:45.130Z,91
2017-12-24T07:17:48.867Z,90.8
2017-12-24T07:18:52.334Z,90.7
2017-12-24T07:19:56.561Z,90.8
2017-12-24T07:21:00.255Z,90.9
2017-12-24T07:22:04.289Z,90.8
2017-12-24T07:23:07.749Z,90.8
2017-12-24T07:24:15.379Z,90.8
2017-12-24T07:25:19.077Z,90.9
2017-12-24T07:26:26.344Z,90.9
2017-12-24T07:27:30.404Z,90.9
2017-12-24T07:28:34.227Z,90.9
2017-12-24T07:29:37.733Z,90.9
2017-12-24T07:30:41.177Z,90.8
2017-12-24T07:31:44.731Z,90.8
2017-12-24T07:32:49.103Z,90.8
2017-12-24T07:33:52.414Z,90.9
2017-12-24T07:34:55.973Z,91
2017-12-24T07:36:00.491Z,91
2017-12-24T07:37:07.803Z,91.1
2017-12-24T07:38:11.315Z,91
2017-12-24T07:39:15.008Z,91
2017-12-24T07:40:18.523Z,91
2017-12-24T07:41:22.018Z,91
2017-12-24T07:42:25.595Z,91
2017-12-24T07:43:29.806Z,91
2017-12-24T07:44:33.631Z,91
2017-12-24T07:45:36.969Z,90.7
2017-12-24T07:46:41.172Z,90.7
2017-12-24T07:47:48.189Z,90.8
2017-12-24T07:48:51.701Z,90.8
2017-12-24T07:49:55.828Z,91.4
2017-12-24T07:50:59.188Z,91.2
2017-12-24T07:52:02.677Z,91.2
2017-12-24T07:53:06.290Z,91.3
2017-12-24T07:54:09.838Z,91.4
2017-12-24T07:55:14.361Z,91.4
2017-12-24T07:56:17.863Z,91.4
2017-12-24T07:57:21.329Z,91.2
2017-12-24T07:58:31.279Z,91.2
2017-12-24T07:59:34.947Z,91.2
2017-12-24T08:00:38.483Z,91.1
2017-12-24T08:01:41.960Z,91.1
2017-12-24T08:02:45.375Z,91.1
2017-12-24T08:03:48.774Z,91
2017-12-24T08:04:52.842Z,90.9
2017-12-24T08:05:56.670Z,90.9
2017-12-24T08:07:02.446Z,91
2017-12-24T08:08:05.880Z,91.1
2017-12-24T08:09:13.078Z,91.1
2017-12-24T08:10:16.526Z,91.1
2017-12-24T08:11:19.999Z,91.2
2017-12-24T08:12:23.572Z,91.1
2017-12-24T08:13:27.960Z,91.1
2017-12-24T08:14:31.679Z,91.1
2017-12-24T08:15:35.959Z,91.1
2017-12-24T08:16:39.445Z,91.1
2017-12-24T08:17:42.985Z,91.1
2017-12-24T08:18:46.980Z,91
2017-12-24T08:19:54.051Z,91
2017-12-24T08:20:57.574Z,91
2017-12-24T08:22:01.294Z,91
2017-12-24T08:23:05.404Z,90.9
2017-12-24T08:24:08.796Z,90.8
2017-12-24T08:25:12.298Z,90.8
2017-12-24T08:26:15.745Z,90.8
2017-12-24T08:27:19.179Z,90.8
2017-12-24T08:28:23.585Z,90.9
2017-12-24T08:29:27.053Z,90.9
2017-12-24T08:30:35.316Z,90.8
2017-12-24T08:31:38.796Z,90.9
2017-12-24T08:32:44.468Z,90.8
2017-12-24T08:33:47.644Z,90.8
2017-12-24T08:34:51.714Z,90.7
2017-12-24T08:35:55.034Z,90.7
2017-12-24T08:36:59.191Z,90.7
2017-12-24T08:38:02.719Z,90.7
2017-12-24T08:39:06.414Z,90.7
2017-12-24T08:40:11.320Z,90.7
2017-12-24T08:41:19.621Z,90.7
2017-12-24T08:42:23.177Z,90.6
2017-12-24T08:43:26.805Z,90.6
2017-12-24T08:44:30.258Z,90.6
2017-12-24T08:45:33.897Z,90.4
2017-12-24T08:46:37.450Z,90.5
2017-12-24T08:47:40.788Z,90.4
2017-12-24T08:48:46.099Z,90.3
2017-12-24T08:49:49.540Z,90.4
2017-12-24T08:50:53.392Z,90.3
2017-12-24T08:52:00.714Z,90.3
2017-12-24T08:53:04.259Z,90.3
2017-12-24T08:54:07.785Z,90.2
2017-12-24T08:55:12.754Z,90.1
2017-12-24T08:56:17.751Z,90.1
2017-12-24T08:57:22.009Z,90.1
2017-12-24T08:58:27.597Z,90
2017-12-24T08:59:31.305Z,90.1
2017-12-24T09:00:34.931Z,90.1
2017-12-24T09:01:38.419Z,90.1
2017-12-24T09:02:46.295Z,90
2017-12-24T09:03:51.837Z,90.1
2017-12-24T09:04:57.107Z,90
2017-12-24T09:06:03.437Z,89.4
2017-12-24T09:07:10.253Z,89.8
2017-12-24T09:08:14.585Z,89.7
2017-12-24T09:09:20.201Z,89.3
2017-12-24T09:10:27.512Z,89.6
2017-12-24T09:11:34.318Z,89.6
2017-12-24T09:12:39.892Z,89.3
2017-12-24T09:13:46.833Z,89.2
2017-12-24T09:14:52.829Z,89.2
2017-12-24T09:16:01.200Z,89
2017-12-24T09:17:10.303Z,88.9
2017-12-24T09:18:19.044Z,88.4
2017-12-24T09:19:26.310Z,88.1
2017-12-24T09:20:32.620Z,88.6
2017-12-24T09:21:41.587Z,87.9
2017-12-24T09:22:45.738Z,87.7
2017-12-24T09:23:49.229Z,88.2
2017-12-24T09:24:58.230Z,88.7
2017-12-24T09:26:03.384Z,88.3
2017-12-24T09:27:07.387Z,88.4
2017-12-24T09:28:14.760Z,87.1
2017-12-24T09:29:20.063Z,87.4
2017-12-24T09:30:26.036Z,87.5
2017-12-24T09:31:30.024Z,88.3
2017-12-24T09:32:35.304Z,86.5
2017-12-24T09:33:38.799Z,84.3
2017-12-24T09:34:42.365Z,86.6
2017-12-24T09:35:50.251Z,85.8
2017-12-24T09:36:53.841Z,86.5
2017-12-24T09:37:57.969Z,86
2017-12-24T09:39:01.912Z,85.2
2017-12-24T09:40:05.713Z,86.2
2017-12-24T09:41:10.182Z,86.7
2017-12-24T09:42:14.499Z,85.7
2017-12-24T09:43:18.848Z,86.2
2017-12-24T09:44:23.016Z,84.8
2017-12-24T09:45:27.980Z,85.6
2017-12-24T09:46:37.419Z,85.3
2017-12-24T09:47:44.266Z,85.4
2017-12-24T09:48:52.141Z,86.5
2017-12-24T09:49:56.289Z,86.7
2017-12-24T09:51:01.851Z,86.9
2017-12-24T09:52:05.826Z,86.8
2017-12-24T09:53:12.643Z,87.4
2017-12-24T09:54:16.326Z,86.6
2017-12-24T09:55:21.030Z,85
2017-12-24T09:56:24.626Z,84.9
2017-12-24T09:57:34.157Z,86.5
2017-12-24T09:58:37.625Z,86.6
2017-12-24T09:59:41.131Z,85.4
2017-12-24T10:00:44.794Z,84.5
2017-12-24T10:01:48.414Z,84.9
2017-12-24T10:02:51.829Z,84.8
2017-12-24T10:03:55.971Z,84.3
2017-12-24T10:05:00.932Z,84.9
2017-12-24T10:06:05.152Z,85.7
2017-12-24T10:07:09.361Z,86.2
2017-12-24T10:08:17.449Z,84.8
2017-12-24T10:09:22.080Z,86
2017-12-24T10:10:26.268Z,84.8
2017-12-24T10:11:29.735Z,84.3
2017-12-24T10:12:34.279Z,84
2017-12-24T10:13:37.840Z,84.6
2017-12-24T10:14:40.955Z,85
2017-12-24T10:17:19.885Z,84.6
2017-12-24T10:18:25.834Z,84
2017-12-24T10:19:29.808Z,83.5
2017-12-24T10:20:40.929Z,83.2
2017-12-24T10:21:44.321Z,83.1
2017-12-24T10:22:47.627Z,84.2
2017-12-24T10:23:53.572Z,83.9
2017-12-24T10:24:58.280Z,83.3
2017-12-24T10:26:02.161Z,83.5
2017-12-24T10:27:06.498Z,83.5
2017-12-24T10:28:10.623Z,83.7
2017-12-24T10:29:14.607Z,85
2017-12-24T10:30:18.455Z,84.4
2017-12-24T10:31:27.450Z,83.5
2017-12-24T10:32:35.963Z,86.3
2017-12-24T10:33:41.314Z,84.9
2017-12-24T10:34:50.203Z,83.6
2017-12-24T10:35:56.500Z,83.5
2017-12-24T10:37:00.150Z,84.6
2017-12-24T10:38:05.726Z,84.4
2017-12-24T10:39:29.578Z,84.6
2017-12-24T10:40:34.101Z,84.3
2017-12-24T10:41:43.561Z,83.8
2017-12-24T10:42:51.277Z,83.7
2017-12-24T10:43:54.905Z,84.8
2017-12-24T10:44:58.872Z,84.6
2017-12-24T10:46:02.539Z,85.3
2017-12-24T10:47:06.220Z,85.5
2017-12-24T10:48:09.995Z,83.8
2017-12-24T10:49:13.717Z,85
2017-12-24T10:50:17.914Z,84.4
2017-12-24T10:51:22.208Z,84.9
2017-12-24T10:52:26.445Z,82.7
2017-12-24T10:53:36.191Z,82.3
2017-12-24T10:54:39.713Z,82.2
2017-12-24T10:55:44.557Z,83
2017-12-24T10:56:48.433Z,84.3
2017-12-24T10:57:53.080Z,84.4
2017-12-24T10:58:57.038Z,84
2017-12-24T11:00:00.471Z,86
2017-12-24T11:01:04.663Z,86.1
2017-12-24T11:02:10.092Z,84.8
2017-12-24T11:03:15.889Z,83.6
2017-12-24T11:04:27.522Z,85.4
2017-12-24T11:05:32.897Z,84.6
2017-12-24T11:06:37.183Z,83.6
2017-12-24T11:07:41.319Z,82.6
2017-12-24T11:08:45.174Z,82.5
2017-12-24T11:09:48.563Z,83.1
2017-12-24T11:10:52.644Z,85.6
2017-12-24T11:11:57.719Z,86.3
2017-12-24T11:13:01.210Z,83.6
2017-12-24T11:14:06.298Z,83.2
2017-12-24T11:15:15.168Z,84.8
2017-12-24T11:16:19.182Z,83.4
2017-12-24T11:17:23.107Z,83.9
2017-12-24T11:18:31.041Z,84.8
2017-12-24T11:19:36.127Z,85.4
2017-12-24T11:20:43.909Z,85.1
2017-12-24T11:21:48.148Z,84.8
2017-12-24T11:22:52.384Z,85
2017-12-24T11:23:55.706Z,85.2
2017-12-24T11:25:01.914Z,85.2
2017-12-24T11:26:11.855Z,85.3
2017-12-24T11:27:17.385Z,84.8
2017-12-24T11:28:23.478Z,84.6
2017-12-24T11:29:29.793Z,84.3
2017-12-24T11:30:35.267Z,84.3
2017-12-24T11:31:41.073Z,84
2017-12-24T11:32:45.504Z,83.9
2017-12-24T11:33:49.856Z,84.3
2017-12-24T11:34:54.577Z,84.2
2017-12-24T11:36:02.074Z,84.2
2017-12-24T11:37:14.431Z,83.9
2017-12-24T11:38:20.634Z,83.6
2017-12-24T11:39:31.904Z,84
2017-12-24T11:40:38.741Z,83.9
2017-12-24T11:41:49.666Z,83.8
2017-12-24T11:42:57.869Z,83.9
2017-12-24T11:44:04.807Z,83.7
2017-12-24T11:45:09.661Z,82.6
2017-12-24T11:46:15.394Z,82.3
2017-12-24T11:47:25.231Z,82.4
2017-12-24T11:48:38.968Z,82.7
2017-12-24T11:49:45.500Z,82.7
2017-12-24T11:50:52.224Z,83
2017-12-24T11:51:57.981Z,83.1
2017-12-24T11:53:05.611Z,82.9
2017-12-24T11:54:14.060Z,83.2
2017-12-24T11:55:22.072Z,83.3
2017-12-24T11:56:31.976Z,83.3
2017-12-24T11:57:41.187Z,83.4
2017-12-24T11:58:50.142Z,81.8
2017-12-24T12:00:01.453Z,80.8
2017-12-24T12:01:07.606Z,81.6
2017-12-24T12:02:17.607Z,81.3
2017-12-24T12:03:24.940Z,81.2
2017-12-24T12:04:33.739Z,81.4
2017-12-24T12:05:45.174Z,81.2
2017-12-24T12:06:58.671Z,80.4
2017-12-24T12:08:15.313Z,80.2
2017-12-24T12:09:25.211Z,80.2
2017-12-24T12:10:33.834Z,79.7
2017-12-24T12:11:44.166Z,80.2
2017-12-24T12:12:49.133Z,80.5
2017-12-24T12:13:54.801Z,80.4
2017-12-24T12:15:00.047Z,80.7
2017-12-24T12:16:03.562Z,80.7
2017-12-24T12:17:07.693Z,80
2017-12-24T12:18:12.895Z,80.3
2017-12-24T12:19:17.430Z,80.2
2017-12-24T12:20:25.316Z,80.1
2017-12-24T12:21:32.345Z,80.3
2017-12-24T12:22:40.672Z,80.1
2017-12-24T12:23:45.394Z,79.5
2017-12-24T12:24:49.743Z,78.7
2017-12-24T12:25:57.288Z,79.2
2017-12-24T12:27:01.963Z,79.8
2017-12-24T12:28:08.085Z,79.9
2017-12-24T12:29:16.552Z,79.8
2017-12-24T12:30:21.807Z,80.3
2017-12-24T12:31:26.685Z,80.4
2017-12-24T12:32:32.924Z,81.3
2017-12-24T12:33:42.478Z,80.3
2017-12-24T12:34:48.570Z,80.1
2017-12-24T12:35:56.574Z,79.4
2017-12-24T12:37:04.432Z,79.6
2017-12-24T12:38:12.629Z,79.6
2017-12-24T12:39:21.154Z,79.6
2017-12-24T12:40:32.853Z,79.6
2017-12-24T12:41:39.309Z,79.2
2017-12-24T12:42:47.940Z,78.5
2017-12-24T12:43:56.092Z,78.7
2017-12-24T12:45:11.621Z,78.9
2017-12-24T12:46:24.073Z,78.5
2017-12-24T12:47:36.740Z,78.8
2017-12-24T12:48:47.152Z,78.4
2017-12-24T12:49:57.664Z,78.1
2017-12-24T12:51:08.352Z,78.3
2017-12-24T12:52:17.760Z,78.4
2017-12-24T12:53:30.598Z,79.2
2017-12-24T12:54:43.091Z,79.5
2017-12-24T12:55:50.806Z,79.4
2017-12-24T12:57:01.186Z,79.5
2017-12-24T12:58:05.505Z,79
2017-12-24T12:59:09.535Z,79.2
2017-12-24T13:00:18.343Z,79.4
2017-12-24T13:01:25.195Z,79
2017-12-24T13:02:30.237Z,79.3
2017-12-24T13:03:33.748Z,79.4
2017-12-24T13:04:38.670Z,79.8
2017-12-24T13:05:43.523Z,81
2017-12-24T13:06:52.874Z,80
2017-12-24T13:08:03.760Z,79.4
2017-12-24T13:09:08.390Z,79.3
2017-12-24T13:10:15.702Z,79
2017-12-24T13:11:21.754Z,78.7
2017-12-24T13:12:26.810Z,78.7
2017-12-24T13:13:31.017Z,79.3
2017-12-24T13:14:39.906Z,79.6
2017-12-24T13:15:44.379Z,79.8
2017-12-24T13:16:52.233Z,79.3
2017-12-24T13:17:57.832Z,79.7
2017-12-24T13:19:09.245Z,79.3
2017-12-24T13:20:14.338Z,79
2017-12-24T13:21:21.179Z,79
2017-12-24T13:22:25.810Z,79.2
2017-12-24T13:23:30.824Z,79.4
2017-12-24T13:24:38.309Z,79.7
2017-12-24T13:25:44.060Z,80
2017-12-24T13:26:52.947Z,80.2
2017-12-24T13:27:59.754Z,80.3
2017-12-24T13:29:04.788Z,80.1
2017-12-24T13:30:13.012Z,79.1
2017-12-24T13:31:28.819Z,79.2
2017-12-24T13:32:33.481Z,79.3
2017-12-24T13:33:37.772Z,79.7
2017-12-24T13:34:41.671Z,79.8
2017-12-24T13:35:48.620Z,79.8
2017-12-24T13:36:55.949Z,79
2017-12-24T13:38:01.574Z,79.3
2017-12-24T13:39:06.099Z,79.4
2017-12-24T13:40:10.858Z,79.3
2017-12-24T13:41:23.751Z,79.5
2017-12-24T13:42:27.299Z,78.5
2017-12-24T13:43:34.384Z,78.2
2017-12-24T13:44:37.971Z,78.4
2017-12-24T13:45:48.143Z,78.6
2017-12-24T13:46:57.391Z,78.9
2017-12-24T13:48:02.538Z,79.4
2017-12-24T13:49:08.619Z,79.3
2017-12-24T13:50:16.211Z,79.5
2017-12-24T13:51:20.672Z,79.3
2017-12-24T13:52:30.165Z,79.3
2017-12-24T13:53:36.660Z,79.3
2017-12-24T13:54:42.389Z,79.7
2017-12-24T13:55:52.287Z,79.6
2017-12-24T13:56:57.758Z,79.7
2017-12-24T13:58:05.181Z,79.8
2017-12-24T13:59:09.927Z,79.8
2017-12-24T14:00:13.596Z,79.7
2017-12-24T14:01:19.504Z,79.7
2017-12-24T14:02:23.018Z,79.5
2017-12-24T14:03:32.786Z,79.9
2017-12-24T14:04:36.826Z,80.2
2017-12-24T14:05:41.476Z,80.3
2017-12-24T14:06:46.773Z,80.7
2017-12-24T14:07:51.192Z,80.7
2017-12-24T14:08:58.292Z,80.9
2017-12-24T14:10:03.425Z,80.8
2017-12-24T14:11:09.703Z,80.9
2017-12-24T14:12:16.231Z,80.8
2017-12-24T14:13:22.933Z,80.8
2017-12-24T14:14:32.708Z,80.9
2017-12-24T14:15:37.528Z,81
2017-12-24T14:16:41.734Z,80.9
2017-12-24T14:17:47.379Z,81
2017-12-24T14:18:51.441Z,80.9
2017-12-24T14:19:55.320Z,81.1
2017-12-24T14:21:00.343Z,81.1
2017-12-24T14:22:04.495Z,81.1
2017-12-24T14:23:08.672Z,81.1
2017-12-24T14:24:13.391Z,81.3
2017-12-24T14:25:21.491Z,81.4
2017-12-24T14:26:24.976Z,81.5
2017-12-24T14:27:30.697Z,81.7
2017-12-24T14:28:36.903Z,81.5
2017-12-24T14:29:42.112Z,81.4
2017-12-24T14:30:49.501Z,81.4
2017-12-24T14:31:55.638Z,81.4
2017-12-24T14:33:03.076Z,81.6